createdAt,value
2019-03-31T00:01:07.938Z,18.000000
2019-03-31T00:03:39.043Z,17.100000
2019-03-31T00:06:09.404Z,17.100000
2019-03-31T00:08:39.716Z,16.000000
2019-03-31T00:11:10.057Z,16.000000
2019-03-31T00:13:40.538Z,15.700000
2019-03-31T00:16:10.843Z,15.700000
2019-03-31T00:18:41.182Z,15.300000
2019-03-31T00:21:11.504Z,15.300000
2019-03-31T00:23:41.873Z,16.300000
2019-03-31T00:26:12.183Z,16.300000
2019-03-31T00:28:42.624Z,13.700000
2019-03-31T00:31:22.093Z,13.700000
2019-03-31T00:33:53.065Z,14.300000
2019-03-31T00:36:23.483Z,14.300000
2019-03-31T00:38:53.828Z,12.100000
2019-03-31T00:41:24.179Z,12.100000
2019-03-31T00:43:54.628Z,11.600000
2019-03-31T00:46:25.051Z,11.600000
2019-03-31T00:48:55.402Z,12.700000
2019-03-31T00:51:25.740Z,12.700000
2019-03-31T00:53:56.059Z,11.200000
2019-03-31T00:56:26.424Z,11.200000
2019-03-31T00:58:56.846Z,11.100000
2019-03-31T01:01:36.205Z,11.100000
2019-03-31T01:04:07.497Z,11.500000
2019-03-31T01:06:37.896Z,11.500000
2019-03-31T01:09:08.282Z,10.000000
2019-03-31T01:11:38.573Z,10.000000
2019-03-31T01:14:08.991Z,7.500000
2019-03-31T01:16:39.288Z,7.500000
2019-03-31T01:19:09.647Z,7.100000
2019-03-31T01:21:39.981Z,7.100000
2019-03-31T01:24:10.338Z,8.100000
2019-03-31T01:26:40.686Z,8.100000
2019-03-31T01:29:11.080Z,7.000000
2019-03-31T01:31:50.232Z,7.000000
2019-03-31T01:34:21.126Z,8.800000
2019-03-31T01:36:51.447Z,8.800000
2019-03-31T01:39:21.802Z,6.100000
2019-03-31T01:41:52.150Z,6.100000
2019-03-31T01:44:22.486Z,6.600000
2019-03-31T01:46:52.915Z,6.600000
2019-03-31T01:49:23.334Z,9.500000
2019-03-31T01:51:53.658Z,9.500000
2019-03-31T01:54:23.995Z,9.500000
2019-03-31T01:56:54.367Z,9.500000
2019-03-31T01:59:24.764Z,9.000000
2019-03-31T02:02:04.114Z,9.000000
2019-03-31T02:04:35.188Z,8.200000
2019-03-31T02:07:05.505Z,8.200000
2019-03-31T02:09:35.834Z,8.300000
2019-03-31T02:12:06.161Z,8.300000
2019-03-31T02:14:36.483Z,7.700000
2019-03-31T02:17:06.734Z,6.600000
2019-03-31T02:19:37.220Z,6.600000
2019-03-31T02:22:07.468Z,5.900000
2019-03-31T02:24:37.785Z,5.900000
2019-03-31T02:27:08.103Z,7.100000
2019-03-31T02:29:38.422Z,7.100000
2019-03-31T02:32:23.498Z,7.700000
2019-03-31T02:34:54.987Z,7.700000
2019-03-31T02:37:25.347Z,6.800000
2019-03-31T02:39:55.675Z,6.800000
2019-03-31T02:42:26.174Z,5.000000
2019-03-31T02:44:58.647Z,5.000000
2019-03-31T02:47:29.036Z,4.000000
2019-03-31T02:49:59.345Z,4.000000
2019-03-31T02:52:29.721Z,6.300000
2019-03-31T02:55:00.502Z,6.300000
2019-03-31T02:57:30.937Z,7.500000
2019-03-31T03:00:01.442Z,7.500000
2019-03-31T03:02:41.558Z,6.100000
2019-03-31T03:05:19.840Z,6.100000
2019-03-31T03:07:50.683Z,5.600000
2019-03-31T03:10:20.984Z,5.600000
2019-03-31T03:12:51.555Z,5.900000
2019-03-31T03:15:21.940Z,5.900000
2019-03-31T03:17:52.381Z,6.000000
2019-03-31T03:20:22.755Z,6.000000
2019-03-31T03:22:53.198Z,6.300000
2019-03-31T03:25:23.624Z,6.300000
2019-03-31T03:27:54.017Z,7.100000
2019-03-31T03:30:24.570Z,7.100000
2019-03-31T03:33:13.638Z,5.500000
2019-03-31T03:35:46.645Z,5.500000
2019-03-31T03:38:17.130Z,6.400000
2019-03-31T03:40:47.453Z,6.400000
2019-03-31T03:43:17.999Z,6.300000
2019-03-31T03:45:48.509Z,6.300000
2019-03-31T03:48:18.929Z,5.600000
2019-03-31T03:50:49.251Z,5.600000
2019-03-31T03:53:19.666Z,5.600000
2019-03-31T03:55:49.982Z,5.600000
2019-03-31T03:58:20.280Z,5.200000
2019-03-31T04:00:50.633Z,5.200000
2019-03-31T04:03:29.810Z,5.300000
2019-03-31T04:06:01.296Z,5.300000
2019-03-31T04:08:31.611Z,5.700000
2019-03-31T04:11:02.138Z,5.700000
2019-03-31T04:13:32.478Z,5.500000
2019-03-31T04:16:02.906Z,5.500000
2019-03-31T04:18:33.232Z,5.500000
2019-03-31T04:21:03.745Z,5.500000
2019-03-31T04:23:34.196Z,5.100000
2019-03-31T04:26:04.587Z,5.100000
2019-03-31T04:28:35.027Z,5.700000
2019-03-31T04:31:05.334Z,5.700000
2019-03-31T04:33:50.672Z,5.700000
2019-03-31T04:36:22.788Z,5.700000
2019-03-31T04:38:53.297Z,6.300000
2019-03-31T04:41:23.656Z,6.300000
2019-03-31T04:43:54.061Z,5.900000
2019-03-31T04:46:24.499Z,5.900000
2019-03-31T04:48:54.899Z,5.100000
2019-03-31T04:51:25.227Z,5.300000
2019-03-31T04:53:55.534Z,5.300000
2019-03-31T04:56:26.033Z,5.600000
2019-03-31T04:58:56.450Z,5.600000
2019-03-31T05:01:26.836Z,6.200000
2019-03-31T05:04:04.522Z,6.200000
2019-03-31T05:06:35.528Z,5.000000
2019-03-31T05:09:05.913Z,5.000000
2019-03-31T05:11:36.257Z,4.100000
2019-03-31T05:14:06.572Z,4.100000
2019-03-31T05:16:36.876Z,3.700000
2019-03-31T05:21:42.416Z,2.500000
2019-03-31T05:24:17.807Z,2.500000
2019-03-31T05:26:48.087Z,2.200000
2019-03-31T05:29:18.392Z,2.200000
2019-03-31T05:31:48.800Z,1.800000
2019-03-31T05:34:19.652Z,1.800000
2019-03-31T05:36:50.398Z,1.700000
2019-03-31T05:39:20.727Z,1.700000
2019-03-31T05:41:51.045Z,1.900000
2019-03-31T05:44:21.362Z,1.900000
2019-03-31T05:46:51.678Z,1.700000
2019-03-31T05:49:21.988Z,1.700000
2019-03-31T05:51:52.301Z,1.300000
2019-03-31T05:54:22.712Z,1.300000
2019-03-31T05:56:53.015Z,1.500000
2019-03-31T05:59:23.357Z,1.500000
2019-03-31T06:01:53.649Z,1.600000
2019-03-31T06:04:32.985Z,1.600000
2019-03-31T06:07:03.956Z,1.500000
2019-03-31T06:09:34.321Z,1.500000
2019-03-31T06:12:04.631Z,1.700000
2019-03-31T06:14:35.049Z,1.700000
2019-03-31T06:17:05.466Z,1.400000
2019-03-31T06:19:35.792Z,1.400000
2019-03-31T06:22:06.125Z,1.400000
2019-03-31T06:24:36.358Z,1.400000
2019-03-31T06:27:06.672Z,1.600000
2019-03-31T06:29:37.009Z,1.600000
2019-03-31T06:32:07.331Z,2.700000
2019-03-31T06:34:47.394Z,2.700000
2019-03-31T06:37:18.258Z,2.300000
2019-03-31T06:39:48.580Z,2.300000
2019-03-31T06:42:18.992Z,5.800000
2019-03-31T06:44:49.316Z,5.800000
2019-03-31T06:47:19.653Z,3.900000
2019-03-31T06:49:50.003Z,3.900000
2019-03-31T06:52:20.323Z,4.400000
2019-03-31T06:54:50.565Z,4.400000
2019-03-31T06:57:20.888Z,3.600000
2019-03-31T06:59:51.230Z,3.600000
2019-03-31T07:02:21.577Z,3.300000
2019-03-31T07:05:00.979Z,3.300000
2019-03-31T07:07:31.842Z,2.100000
2019-03-31T07:10:02.179Z,2.100000
2019-03-31T07:12:32.544Z,2.300000
2019-03-31T07:15:02.917Z,2.300000
2019-03-31T07:17:33.375Z,1.000000
2019-03-31T07:20:03.794Z,1.000000
2019-03-31T07:22:34.305Z,2.000000
2019-03-31T07:25:04.776Z,2.000000
2019-03-31T07:27:35.067Z,1.800000
2019-03-31T07:30:07.168Z,1.800000
2019-03-31T07:32:37.593Z,1.200000
2019-03-31T07:35:18.203Z,1.200000
2019-03-31T07:37:49.429Z,1.700000
2019-03-31T07:40:20.103Z,1.700000
2019-03-31T07:42:51.192Z,1.700000
2019-03-31T07:45:21.887Z,1.700000
2019-03-31T07:47:52.188Z,2.000000
2019-03-31T07:50:22.491Z,2.000000
2019-03-31T07:52:52.857Z,1.900000
2019-03-31T07:55:23.169Z,1.900000
2019-03-31T07:57:54.705Z,1.700000
2019-03-31T08:00:25.114Z,1.700000
2019-03-31T08:02:55.500Z,2.000000
2019-03-31T08:05:33.168Z,2.000000
2019-03-31T08:08:04.349Z,2.300000
2019-03-31T08:10:34.691Z,1.800000
2019-03-31T08:13:05.048Z,1.800000
2019-03-31T08:15:35.364Z,1.700000
2019-03-31T08:18:05.719Z,1.700000
2019-03-31T08:20:36.067Z,1.900000
2019-03-31T08:23:06.321Z,1.900000
2019-03-31T08:25:36.677Z,1.500000
2019-03-31T08:28:07.042Z,1.500000
2019-03-31T08:30:37.463Z,1.900000
2019-03-31T08:33:07.882Z,1.900000
2019-03-31T08:35:47.089Z,1.800000
2019-03-31T08:38:18.135Z,1.800000
2019-03-31T08:40:48.424Z,2.000000
2019-03-31T08:43:18.710Z,2.000000
2019-03-31T08:45:49.095Z,1.700000
2019-03-31T08:48:19.374Z,1.700000
2019-03-31T08:50:49.660Z,1.800000
2019-03-31T08:53:20.028Z,1.800000
2019-03-31T08:55:50.323Z,1.700000
2019-03-31T08:58:20.611Z,1.700000
2019-03-31T09:00:50.906Z,2.400000
2019-03-31T09:03:21.207Z,2.400000
2019-03-31T09:06:01.561Z,1.600000
2019-03-31T09:08:32.820Z,1.600000
2019-03-31T09:11:03.176Z,1.700000
2019-03-31T09:13:33.773Z,1.700000
2019-03-31T09:16:04.118Z,1.800000
2019-03-31T09:18:34.388Z,1.800000
2019-03-31T09:21:04.916Z,1.700000
2019-03-31T09:23:35.318Z,1.700000
2019-03-31T09:26:05.693Z,2.100000
2019-03-31T09:28:36.185Z,2.100000
2019-03-31T09:31:06.491Z,1.900000
2019-03-31T09:33:39.412Z,1.900000
2019-03-31T09:36:16.302Z,2.100000
2019-03-31T09:38:48.531Z,2.100000
2019-03-31T09:41:18.966Z,1.900000
2019-03-31T09:43:49.366Z,1.900000
2019-03-31T09:46:19.772Z,1.700000
2019-03-31T09:48:50.139Z,1.700000
2019-03-31T09:51:20.625Z,1.400000
2019-03-31T09:53:50.903Z,1.400000
2019-03-31T09:56:21.462Z,1.700000
2019-03-31T09:58:51.814Z,1.700000
2019-03-31T10:01:22.209Z,1.700000
2019-03-31T10:03:52.519Z,1.700000
2019-03-31T10:06:30.040Z,1.700000
2019-03-31T10:09:00.973Z,1.700000
2019-03-31T10:11:31.271Z,1.500000
2019-03-31T10:14:01.577Z,1.500000
2019-03-31T10:16:31.930Z,2.300000
2019-03-31T10:19:02.130Z,2.300000
2019-03-31T10:21:32.461Z,1.400000
2019-03-31T10:24:02.745Z,1.400000
2019-03-31T10:26:32.943Z,2.500000
2019-03-31T10:29:03.188Z,2.500000
2019-03-31T10:31:33.459Z,1.700000
2019-03-31T10:34:03.851Z,1.700000
2019-03-31T10:36:44.294Z,1.900000
2019-03-31T10:39:20.374Z,1.900000
2019-03-31T10:41:50.668Z,1.800000
2019-03-31T10:44:21.051Z,1.800000
2019-03-31T10:46:51.337Z,1.600000
2019-03-31T10:49:21.713Z,1.600000
2019-03-31T10:51:52.123Z,1.500000
2019-03-31T10:54:22.473Z,1.500000
2019-03-31T10:56:52.773Z,1.700000
2019-03-31T10:59:23.203Z,1.700000
2019-03-31T11:01:53.577Z,1.700000
2019-03-31T11:04:23.786Z,1.700000
2019-03-31T11:06:59.110Z,1.800000
2019-03-31T11:09:30.107Z,1.800000
2019-03-31T11:12:00.440Z,1.700000
2019-03-31T11:14:30.725Z,1.700000
2019-03-31T11:17:01.057Z,1.600000
2019-03-31T11:19:31.427Z,1.600000
2019-03-31T11:22:06.685Z,1.900000
2019-03-31T11:24:37.016Z,1.900000
2019-03-31T11:27:07.440Z,1.700000
2019-03-31T11:29:37.708Z,1.700000
2019-03-31T11:32:08.153Z,1.500000
2019-03-31T11:34:38.598Z,1.500000
2019-03-31T11:37:13.777Z,1.500000
2019-03-31T11:39:44.283Z,1.500000
2019-03-31T11:42:14.589Z,1.600000
2019-03-31T11:44:44.880Z,1.600000
2019-03-31T11:47:15.317Z,1.600000
2019-03-31T11:49:45.674Z,1.600000
2019-03-31T11:52:16.041Z,1.500000
2019-03-31T11:54:46.456Z,1.500000
2019-03-31T11:57:17.721Z,1.200000
2019-03-31T11:59:49.858Z,1.200000
2019-03-31T12:02:26.847Z,1.300000
2019-03-31T12:04:57.972Z,1.300000
2019-03-31T12:07:28.703Z,1.500000
2019-03-31T12:09:59.148Z,1.400000
2019-03-31T12:12:29.498Z,1.400000
2019-03-31T12:15:00.659Z,1.300000
2019-03-31T12:17:31.357Z,1.300000
2019-03-31T12:20:01.710Z,1.400000
2019-03-31T12:22:32.071Z,1.400000
2019-03-31T12:25:02.483Z,1.000000
2019-03-31T12:27:32.851Z,1.000000
2019-03-31T12:30:03.322Z,1.100000
2019-03-31T12:32:33.609Z,1.100000
2019-03-31T12:35:04.047Z,1.200000
2019-03-31T12:37:42.338Z,1.200000
2019-03-31T12:40:15.305Z,1.300000
2019-03-31T12:42:45.843Z,1.300000
2019-03-31T12:45:16.182Z,1.300000
2019-03-31T12:47:46.560Z,1.300000
2019-03-31T12:50:16.881Z,1.300000
2019-03-31T12:52:50.922Z,1.300000
2019-03-31T12:55:21.676Z,1.100000
2019-03-31T12:57:52.315Z,1.100000
2019-03-31T13:00:22.759Z,1.400000
2019-03-31T13:02:53.092Z,1.400000
2019-03-31T13:05:23.442Z,1.300000
2019-03-31T13:07:56.569Z,1.300000
2019-03-31T13:10:28.142Z,1.500000
2019-03-31T13:12:58.389Z,1.500000
2019-03-31T13:15:28.734Z,1.200000
2019-03-31T13:17:59.017Z,1.200000
2019-03-31T13:20:29.356Z,1.300000
2019-03-31T13:22:59.623Z,1.300000
2019-03-31T13:25:30.104Z,1.400000
2019-03-31T13:28:00.422Z,1.400000
2019-03-31T13:30:30.782Z,0.900000
2019-03-31T13:33:01.231Z,0.900000
2019-03-31T13:35:31.643Z,1.000000
2019-03-31T13:38:11.003Z,1.000000
2019-03-31T13:40:42.074Z,1.100000
2019-03-31T13:43:12.414Z,1.100000
2019-03-31T13:45:42.846Z,1.200000
2019-03-31T13:48:13.169Z,1.200000
2019-03-31T13:50:43.597Z,1.000000
2019-03-31T13:53:16.263Z,1.000000
2019-03-31T13:55:46.969Z,1.200000
2019-03-31T13:58:18.962Z,1.200000
2019-03-31T14:00:49.799Z,1.400000
2019-03-31T14:03:20.238Z,1.400000
2019-03-31T14:05:50.580Z,1.600000
2019-03-31T14:08:25.908Z,1.600000
2019-03-31T14:10:56.603Z,1.600000
2019-03-31T14:13:26.926Z,1.600000
2019-03-31T14:15:57.142Z,1.600000
2019-03-31T14:18:27.356Z,1.600000
2019-03-31T14:20:57.672Z,1.200000
2019-03-31T14:23:28.003Z,1.200000
2019-03-31T14:25:58.308Z,1.400000
2019-03-31T14:28:28.627Z,1.400000
2019-03-31T14:30:58.825Z,1.200000
2019-03-31T14:33:29.272Z,1.200000
2019-03-31T14:35:59.626Z,1.100000
2019-03-31T14:38:40.091Z,1.100000
2019-03-31T14:41:11.078Z,1.300000
2019-03-31T14:43:41.401Z,1.300000
2019-03-31T14:46:11.784Z,1.300000
2019-03-31T14:48:42.087Z,1.300000
2019-03-31T14:51:12.355Z,1.400000
2019-03-31T14:53:42.705Z,1.400000
2019-03-31T14:56:13.133Z,1.100000
2019-03-31T14:58:43.520Z,1.100000
2019-03-31T15:01:13.867Z,1.300000
2019-03-31T15:03:44.229Z,1.300000
2019-03-31T15:06:14.523Z,1.000000
2019-03-31T15:08:54.191Z,1.000000
2019-03-31T15:11:25.213Z,1.000000
2019-03-31T15:13:55.468Z,1.000000
2019-03-31T15:16:25.854Z,1.100000
2019-03-31T15:18:56.328Z,1.100000
2019-03-31T15:21:26.705Z,1.100000
2019-03-31T15:23:57.039Z,1.100000
2019-03-31T15:26:27.509Z,1.000000
2019-03-31T15:28:57.814Z,1.000000
2019-03-31T15:31:28.321Z,1.200000
2019-03-31T15:33:58.806Z,1.200000
2019-03-31T15:36:29.285Z,1.100000
2019-03-31T15:39:08.776Z,1.100000
2019-03-31T15:41:39.701Z,1.700000
2019-03-31T15:44:10.068Z,1.700000
2019-03-31T15:46:40.408Z,1.500000
2019-03-31T15:49:10.762Z,1.500000
2019-03-31T15:51:41.089Z,1.500000
2019-03-31T15:54:11.534Z,1.500000
2019-03-31T15:56:41.872Z,1.500000
2019-03-31T15:59:12.354Z,1.500000
2019-03-31T16:01:42.658Z,1.100000
2019-03-31T16:04:13.051Z,1.100000
2019-03-31T16:06:43.414Z,1.100000
2019-03-31T16:09:23.253Z,1.100000
2019-03-31T16:11:54.412Z,1.400000
2019-03-31T16:14:24.753Z,1.600000
2019-03-31T16:16:55.105Z,1.600000
2019-03-31T16:19:25.471Z,1.200000
2019-03-31T16:21:55.797Z,1.200000
2019-03-31T16:24:26.242Z,1.500000
2019-03-31T16:26:56.612Z,1.500000
2019-03-31T16:29:27.095Z,1.200000
2019-03-31T16:31:57.473Z,1.200000
2019-03-31T16:34:27.968Z,1.200000
2019-03-31T16:36:58.415Z,1.200000
2019-03-31T16:39:37.597Z,1.500000
2019-03-31T16:42:08.702Z,1.500000
2019-03-31T16:44:39.106Z,1.300000
2019-03-31T16:47:09.624Z,1.300000
2019-03-31T16:49:39.968Z,1.400000
2019-03-31T16:52:10.310Z,1.400000
2019-03-31T16:54:40.737Z,1.500000
2019-03-31T16:57:11.035Z,1.500000
2019-03-31T16:59:41.417Z,1.900000
2019-03-31T17:02:11.760Z,1.900000
2019-03-31T17:04:42.109Z,1.300000
2019-03-31T17:07:12.431Z,1.300000
2019-03-31T17:09:51.296Z,1.500000
2019-03-31T17:12:22.277Z,1.500000
2019-03-31T17:14:52.492Z,1.400000
2019-03-31T17:17:22.845Z,1.400000
2019-03-31T17:19:53.180Z,1.200000
2019-03-31T17:22:28.521Z,1.200000
2019-03-31T17:24:58.802Z,1.300000
2019-03-31T17:27:29.128Z,1.300000
2019-03-31T17:29:59.557Z,1.600000
2019-03-31T17:32:29.890Z,1.600000
2019-03-31T17:35:00.374Z,1.400000
2019-03-31T17:37:30.740Z,1.400000
2019-03-31T17:40:06.202Z,1.400000
2019-03-31T17:42:36.950Z,1.400000
2019-03-31T17:45:07.347Z,1.700000
2019-03-31T17:47:37.749Z,1.700000
2019-03-31T17:50:08.161Z,1.400000
2019-03-31T17:52:38.498Z,1.400000
2019-03-31T17:55:08.891Z,1.000000
2019-03-31T17:57:42.273Z,1.000000
2019-03-31T18:00:13.206Z,1.400000
2019-03-31T18:02:43.555Z,1.400000
2019-03-31T18:05:13.920Z,1.800000
2019-03-31T18:07:44.211Z,1.800000
2019-03-31T18:10:21.222Z,1.400000
2019-03-31T18:12:51.964Z,1.400000
2019-03-31T18:15:22.299Z,1.500000
2019-03-31T18:17:52.552Z,1.500000
2019-03-31T18:20:22.932Z,1.800000
2019-03-31T18:22:53.310Z,1.800000
2019-03-31T18:25:23.862Z,2.000000
2019-03-31T18:27:54.267Z,2.000000
2019-03-31T18:30:29.627Z,1.900000
2019-03-31T18:32:59.978Z,1.900000
2019-03-31T18:35:30.238Z,1.600000
2019-03-31T18:38:00.540Z,1.600000
2019-03-31T18:40:35.360Z,1.400000
2019-03-31T18:43:06.147Z,1.400000
2019-03-31T18:45:41.578Z,1.500000
2019-03-31T18:48:11.883Z,1.500000
2019-03-31T18:50:47.349Z,1.400000
2019-03-31T18:53:17.674Z,1.400000
2019-03-31T18:55:53.015Z,1.500000
2019-03-31T18:58:23.378Z,1.500000
2019-03-31T19:00:58.774Z,1.300000
2019-03-31T19:03:34.122Z,1.300000
2019-03-31T19:06:04.446Z,1.600000
2019-03-31T19:08:34.782Z,1.600000
2019-03-31T19:11:10.206Z,2.400000
2019-03-31T19:13:54.522Z,2.600000
2019-03-31T19:16:25.962Z,2.600000
2019-03-31T19:18:56.420Z,2.200000
2019-03-31T19:21:26.868Z,2.200000
2019-03-31T19:23:57.312Z,2.300000
2019-03-31T19:26:27.553Z,2.300000
2019-03-31T19:28:57.830Z,1.800000
2019-03-31T19:31:28.163Z,1.800000
2019-03-31T19:33:58.461Z,1.400000
2019-03-31T19:36:28.741Z,1.400000
2019-03-31T19:38:59.073Z,1.300000
2019-03-31T19:41:29.527Z,1.300000
2019-03-31T19:43:59.885Z,1.400000
2019-03-31T19:46:30.278Z,1.400000
2019-03-31T19:49:00.642Z,1.900000
2019-03-31T19:51:31.059Z,1.900000
2019-03-31T19:54:01.578Z,1.600000
2019-03-31T19:56:32.004Z,1.600000
2019-03-31T19:59:02.467Z,1.300000
2019-03-31T20:01:33.124Z,1.300000
2019-03-31T20:04:03.438Z,1.700000
2019-03-31T20:06:33.790Z,1.700000
2019-03-31T20:09:04.163Z,1.300000
2019-03-31T20:11:34.475Z,1.300000
2019-03-31T20:14:04.938Z,1.400000
2019-03-31T20:16:35.262Z,1.400000
2019-03-31T20:19:06.660Z,1.300000
2019-03-31T20:21:36.997Z,1.300000
2019-03-31T20:24:07.425Z,1.900000
2019-03-31T20:26:37.729Z,1.900000
2019-03-31T20:29:08.054Z,1.200000
2019-03-31T20:31:38.380Z,1.200000
2019-03-31T20:34:13.722Z,2.000000
2019-03-31T20:36:44.041Z,2.000000
2019-03-31T20:39:14.418Z,1.400000
2019-03-31T20:41:44.740Z,1.400000
2019-03-31T20:44:15.075Z,1.400000
2019-03-31T20:46:45.397Z,1.400000
2019-03-31T20:49:15.714Z,0.900000
2019-03-31T20:51:46.018Z,0.900000
2019-03-31T20:54:16.341Z,1.200000
2019-03-31T20:56:46.661Z,1.200000
2019-03-31T20:59:17.005Z,1.700000
2019-03-31T21:01:47.338Z,1.700000
2019-03-31T21:04:17.582Z,1.200000
2019-03-31T21:06:47.963Z,1.200000
2019-03-31T21:09:18.274Z,1.400000
2019-03-31T21:11:48.690Z,1.400000
2019-03-31T21:14:19.026Z,1.100000
2019-03-31T21:16:49.561Z,1.100000
2019-03-31T21:19:19.943Z,1.100000
2019-03-31T21:21:55.423Z,1.100000
2019-03-31T21:24:25.725Z,0.900000
2019-03-31T21:27:01.149Z,0.900000
2019-03-31T21:29:31.455Z,1.200000
2019-03-31T21:32:01.671Z,1.200000
2019-03-31T21:34:31.966Z,1.600000
2019-03-31T21:37:02.392Z,1.600000
2019-03-31T21:39:32.709Z,1.100000
2019-03-31T21:42:03.030Z,1.100000
2019-03-31T21:44:33.355Z,1.300000
2019-03-31T21:47:03.659Z,1.300000
2019-03-31T21:49:33.998Z,1.400000
2019-03-31T21:52:04.427Z,1.400000
2019-03-31T21:54:34.863Z,1.100000
2019-03-31T21:57:05.174Z,1.100000
2019-03-31T21:59:35.486Z,1.000000
2019-03-31T22:02:05.872Z,1.000000
2019-03-31T22:04:36.199Z,1.200000
2019-03-31T22:07:06.584Z,1.200000
2019-03-31T22:09:36.910Z,0.800000
2019-03-31T22:12:07.230Z,0.800000
2019-03-31T22:14:37.630Z,0.800000
2019-03-31T22:17:08.042Z,0.800000
2019-03-31T22:19:38.475Z,0.800000
2019-03-31T22:22:08.880Z,0.800000
2019-03-31T22:24:39.177Z,1.200000
2019-03-31T22:27:09.498Z,1.200000
2019-03-31T22:29:39.902Z,0.800000
2019-03-31T22:32:10.096Z,0.800000
2019-03-31T22:34:40.418Z,1.100000
2019-03-31T22:37:10.837Z,1.100000
2019-03-31T22:39:41.132Z,1.500000
2019-03-31T22:42:11.499Z,1.500000
2019-03-31T22:44:41.797Z,0.900000
2019-03-31T22:47:12.124Z,0.900000
2019-03-31T22:49:42.608Z,0.900000
2019-03-31T22:52:12.910Z,0.900000
2019-03-31T22:54:43.127Z,0.900000
2019-03-31T22:57:13.573Z,0.900000
2019-03-31T22:59:43.826Z,0.700000
2019-03-31T23:02:14.148Z,0.700000
2019-03-31T23:04:44.602Z,0.900000
2019-03-31T23:07:14.896Z,0.900000
2019-03-31T23:09:45.177Z,0.900000
2019-03-31T23:12:15.564Z,0.900000
2019-03-31T23:14:45.948Z,1.000000
2019-03-31T23:17:16.409Z,1.000000
2019-03-31T23:19:46.706Z,1.100000
2019-03-31T23:22:18.162Z,1.100000
2019-03-31T23:24:48.447Z,1.200000
2019-03-31T23:27:18.793Z,1.200000
2019-03-31T23:29:49.164Z,1.300000
2019-03-31T23:32:19.498Z,1.300000
2019-03-31T23:34:49.986Z,0.700000
2019-03-31T23:37:20.354Z,0.700000
2019-03-31T23:39:50.703Z,1.000000
2019-03-31T23:42:21.091Z,1.000000
2019-03-31T23:44:51.390Z,1.000000
2019-03-31T23:47:21.766Z,1.000000
2019-03-31T23:49:52.051Z,0.800000
2019-03-31T23:52:22.331Z,0.800000
2019-03-31T23:54:52.616Z,0.800000
2019-03-31T23:57:22.916Z,1.100000
2019-03-31T23:59:53.315Z,1.100000
